Latest Coastal Weather Observations for Cape Bruny AWS

IDT60701

Issued at 12:15 am EST Sunday 31 August 2014 (issued every 10 minutes, with the page automatically refreshed every 10 minutes)

About coastal observations | Map of coastal stations | Coastal observations for TAS | Marine services | Other Formats
Station Details ID: 094198 Name: CAPE BRUNY (CAPE BRUNY) Lat: -43.49 Lon: 147.14 Height: 59.7 m
Data from the previous 72 hours. | See also: Recent months at Cape Bruny AWS
Date/Time
EST
Temp

°C
Wind Pressure Rain
since 9am
mm
Weather Cloud Vis
km
Sea
Height
m
Swell
Dir
 
Speed
knots
Gust
knots
hPa Trend Height
m
Period
s
Dir
31/12:00am 10.8 N 12 16 1018.4 - 0.2 - - - - - - -
 
Date/Time
EST
Temp

°C
Wind Pressure Rain
since 9am
mm
Weather Cloud Vis
km
Sea
Height
m
Swell
Dir
 
Speed
knots
Gust
knots
hPa Trend Height
m
Period
s
Dir
30/11:30pm 10.9 N 10 14 1018.8 - 0.2 - - - - - - -
30/11:00pm 11.1 N 10 14 1019.2 - 0.2 - - - - - - -
30/10:30pm 10.9 N 9 11 1019.7 - 0.2 - - - - - - -
30/10:00pm 11.0 NNE 9 12 1020.2 - 0.2 - - - - - - -
30/09:30pm 11.0 N 9 13 1020.7 - 0.2 - - - - - - -
30/09:00pm 11.1 NNE 9 12 1021.0 - 0.2 - - - - - - -
30/08:30pm 11.3 NNE 10 14 1021.1 - 0.2 - - - - - - -
30/08:00pm 10.7 NNE 10 13 1021.2 - 0.2 - - - - - - -
30/07:30pm 10.6 NNW 5 7 1021.5 - 0.2 - - - - - - -
30/07:00pm 11.1 S 1 5 1021.6 - 0.2 - - - - - - -
30/06:30pm 10.9 W 2 5 1022.0 - 0.2 - - - - - - -
30/06:00pm 11.7 WSW 2 3 1021.9 - 0.2 - - - - - - -
30/05:30pm 12.6 WSW 3 4 1022.1 - 0.2 - - - - - - -
30/05:00pm 13.0 S 4 5 1022.2 - 0.2 - - - - - - -
30/04:30pm 13.5 SSW 5 6 1022.6 - 0.2 - - - - - - -
30/04:00pm 14.0 S 8 11 1022.8 - 0.2 - - - - - - -
30/03:30pm 14.8 S 8 13 1022.9 - 0.2 - - - - - - -
30/03:00pm 16.7 NNE 7 10 1023.1 - 0.2 Recent precip. - - - - - -
30/02:30pm 16.4 NNE 8 13 1023.3 - 0.2 - - - - - - -
30/02:00pm 16.9 NNE 10 15 1023.5 - 0.0 - - - - - - -
30/01:30pm 16.4 NE 10 15 1023.9 - 0.0 - - - - - - -
30/01:00pm 15.9 NNE 12 16 1024.3 - 0.0 - - - - - - -
30/12:30pm 15.6 NNE 12 16 1024.6 - 0.0 - - - - - - -
30/12:00pm 14.9 NNE 11 16 1025.1 - 0.0 - - - - - - -
30/11:30am 14.8 N 9 13 1025.5 - 0.0 - - - - - - -
30/11:00am 14.7 NNE 11 16 1025.9 - 0.0 - - - - - - -
30/10:30am 14.6 NNE 9 12 1026.4 - 0.0 - - - - - - -
30/10:00am 13.4 NNE 11 15 1026.7 - 0.0 - - - - - - -
30/09:30am 13.3 NNE 10 13 1027.0 - 0.0 - - - - - - -
30/09:00am 11.6 N 11 14 1027.1 - 0.0 - - - - - - -
30/08:30am 10.4 N 13 18 1027.2 - 0.0 - - - - - - -
30/08:00am 9.7 NNE 14 19 1027.3 - 0.0 - - - - - - -
30/07:30am 9.4 NNE 15 20 1027.3 - 0.0 - - - - - - -
30/07:00am 9.0 N 14 19 1027.1 - 0.0 - - - - - - -
30/06:30am 8.7 N 13 17 1027.2 - 0.0 - - - - - - -
30/06:00am 8.7 NNE 13 17 1027.2 - 0.0 - - - - - - -
30/05:30am 9.0 N 11 16 1027.1 - 0.0 - - - - - - -
30/05:00am 9.0 N 9 12 1027.4 - 0.0 - - - - - - -
30/04:30am 9.1 N 12 15 1027.4 - 0.0 - - - - - - -
30/04:00am 9.4 N 12 14 1027.4 - 0.0 - - - - - - -
30/03:30am 9.4 N 11 14 1027.6 - 0.0 - - - - - - -
30/03:00am 9.7 N 13 16 1027.8 - 0.0 - - - - - - -
30/02:30am 9.7 N 12 16 1027.9 - 0.0 - - - - - - -
30/02:00am 9.9 N 12 16 1028.1 - 0.0 - - - - - - -
30/01:30am 10.3 N 13 16 1028.2 - 0.0 - - - - - - -
30/01:00am 10.0 N 12 16 1028.3 - 0.0 - - - - - - -
30/12:30am 10.1 N 13 17 1028.3 - 0.0 - - - - - - -
30/12:00am 10.3 N 13 17 1028.4 - 0.0 - - - - - - -
 
Date/Time
EST
Temp

°C
Wind Pressure Rain
since 9am
mm
Weather Cloud Vis
km
Sea
Height
m
Swell
Dir
 
Speed
knots
Gust
knots
hPa Trend Height
m
Period
s
Dir
29/11:30pm 10.5 N 12 16 1028.5 - 0.0 - - - - - - -
29/11:00pm 10.7 N 12 16 1028.6 - 0.0 - - - - - - -
29/10:30pm 10.6 N 12 15 1028.9 - 0.0 - - - - - - -
29/10:00pm 10.5 NNE 10 14 1029.0 - 0.0 - - - - - - -
29/09:30pm 10.2 NNE 8 10 1029.0 - 0.0 - - - - - - -
29/09:00pm 10.5 N 7 10 1029.1 - 0.0 - - - - - - -
29/08:30pm 9.8 N 7 9 1029.1 - 0.0 - - - - - - -
29/08:00pm 9.7 NNE 6 7 1029.2 - 0.0 - - - - - - -
29/07:30pm 10.1 NE 5 6 1029.2 - 0.0 - - - - - - -
29/07:00pm 10.1 NE 5 5 1029.1 - 0.0 - - - - - - -
29/06:30pm 10.5 NE 6 7 1029.1 - 0.0 - - - - - - -
29/06:00pm 10.9 NNE 7 8 1028.8 - 0.0 - - - - - - -
29/05:30pm 11.2 N 4 6 1028.8 - 0.0 - - - - - - -
29/05:00pm 12.9 WNW 5 6 1028.8 - 0.0 - - - - - - -
29/04:30pm 14.5 WNW 5 6 1028.6 - 0.0 - - - - - - -
29/04:00pm 15.0 W 5 6 1028.4 - 0.0 - - - - - - -
29/03:30pm 15.7 SSW 4 5 1028.2 - 0.0 - - - - - - -
29/03:00pm 16.0 S 4 5 1028.1 - 0.0 - - - - - - -
29/02:30pm 15.9 S 6 7 1028.2 - 0.0 - - - - - - -
29/02:00pm 15.9 ESE 6 8 1028.2 - 0.0 - - - - - - -
29/01:30pm 15.2 ESE 7 8 1028.3 - 0.0 - - - - - - -
29/01:00pm 15.1 SE 7 10 1028.4 - 0.0 - - - - - - -
29/12:30pm 15.5 E 7 10 1028.6 - 0.0 - - - - - - -
29/12:00pm 15.9 NNE 8 11 1029.1 - 0.0 - - - - - - -
29/11:30am 15.3 N 8 12 1029.2 - 0.0 - - - - - - -
29/11:00am 14.7 N 8 12 1029.2 - 0.0 - - - - - - -
29/10:30am 13.7 N 8 12 1029.3 - 0.0 - - - - - - -
29/10:00am 13.0 N 10 15 1029.4 - 0.0 - - - - - - -
29/09:30am 12.2 N 10 14 1029.4 - 0.0 - - - - - - -
29/09:00am 10.9 N 10 13 1029.5 - - - - - - - - -
29/08:30am 9.9 N 11 14 1029.3 - - - - - - - - -
29/08:00am 9.1 N 11 13 1029.1 - - - - - - - - -
29/07:30am 8.9 N 10 13 1028.8 - - - - - - - - -
29/07:00am 8.8 N 11 13 1028.4 - - - - - - - - -
29/06:30am 8.8 N 11 13 1028.1 - - - - - - - - -
29/06:00am 8.7 N 11 13 1027.8 - - - - - - - - -
29/05:30am 9.0 N 11 12 1027.7 - - - - - - - - -
29/05:00am 9.2 N 9 10 1027.6 - - - - - - - - -
29/04:30am 9.4 N 5 7 1027.6 - - - - - - - - -
29/04:00am 9.2 N 4 5 1027.5 - - - - - - - - -
29/03:30am 9.4 N 3 6 1027.4 - - - - - - - - -
29/03:00am 9.6 N 7 9 1027.3 - 0.0 - - - - - - -
29/02:30am 9.8 N 7 9 1027.5 - - - - - - - - -
29/02:00am 9.9 N 8 9 1027.6 - - - - - - - - -
29/01:30am 10.2 N 8 9 1027.6 - - - - - - - - -
29/01:00am 10.0 N 7 8 1027.6 - - - - - - - - -
29/12:30am 10.2 N 8 9 1027.6 - - - - - - - - -
29/12:00am 10.1 N 8 9 1027.4 - - - - - - - - -
 
Date/Time
EST
Temp

°C
Wind Pressure Rain
since 9am
mm
Weather Cloud Vis
km
Sea
Height
m
Swell
Dir
 
Speed
knots
Gust
knots
hPa Trend Height
m
Period
s
Dir
28/11:30pm 9.6 N 6 7 1027.4 - - - - - - - - -
28/11:00pm 9.3 N 7 9 1027.5 - - - - - - - - -
28/10:30pm 9.1 WNW 4 6 1027.7 - - - - - - - - -
28/10:00pm 10.1 W 4 5 1027.8 - - - - - - - - -
28/09:30pm 10.2 W 4 5 1027.8 - - - - - - - - -
28/09:00pm 9.9 SSE 4 5 1027.8 - - - - - - - - -
28/08:30pm 10.5 SE 2 5 1027.8 - - - - - - - - -
28/08:00pm 10.7 ESE 6 7 1027.6 - - - - - - - - -
28/07:30pm 11.1 ESE 8 9 1027.5 - - - - - - - - -
28/07:00pm 11.2 SE 8 11 1027.7 - - - - - - - - -
28/06:30pm 11.4 SE 7 9 1027.6 - - - - - - - - -
28/06:00pm 11.6 SE 7 10 1027.4 - - - - - - - - -
28/05:30pm 12.0 SE 5 7 1027.2 - - - - - - - - -
28/05:00pm 12.6 SE 4 5 1027.1 - - - - - - - - -
28/04:30pm 12.7 SE 4 6 1027.0 - 0.0 - - - - - - -
28/04:00pm 13.6 SE 5 6 1026.8 - 0.0 - - - - - - -
28/03:30pm 13.3 SE 6 8 1026.7 - 0.0 - - - - - - -
28/03:00pm 13.4 SE 7 11 1026.8 - 0.0 - - - - - - -
28/02:30pm 14.6 SE 5 7 1026.8 - 0.0 - - - - - - -
28/02:00pm 14.5 SE 6 7 1026.9 - 0.0 - - - - - - -
28/01:30pm 14.7 SE 6 7 1027.1 - 0.0 - - - - - - -
28/01:00pm 14.4 SE 7 9 1027.4 - 0.0 - - - - - - -
28/12:30pm 14.7 SE 5 8 1027.7 - 0.0 - - - - - - -
28/12:00pm 13.7 ESE 4 7 1028.2 - 0.0 - - - - - - -
28/11:30am 15.0 E 5 8 1028.4 - 0.0 - - - - - - -
28/11:00am 13.6 N 5 7 1028.7 - 0.0 - - - - - - -
28/10:30am 12.7 N 6 8 1028.9 - 0.0 - - - - - - -
28/10:00am 11.8 N 5 6 1029.0 - 0.0 - - - - - - -
28/09:30am 11.4 N 7 8 1029.0 - 0.0 - - - - - - -
28/09:00am 10.8 NE 4 7 1028.8 - 0.8 - - - - - - -
28/08:30am 10.8 NNE 3 5 1028.9 - 0.8 - - - - - - -
28/08:00am 10.2 N 6 8 1028.9 - 0.8 - - - - - - -
28/07:30am 10.2 N 7 9 1028.7 - 0.8 - - - - - - -
28/07:00am 10.3 N 8 9 1028.5 - 0.8 - - - - - - -
28/06:30am 10.2 N 8 10 1028.1 - 0.8 - - - - - - -
28/06:00am 10.8 N 8 9 1028.1 - 0.8 - - - - - - -
28/05:30am 10.6 N 9 11 1028.0 - 0.8 - - - - - - -
28/05:00am 10.6 N 9 11 1028.1 - 0.8 - - - - - - -
28/04:30am 10.8 N 9 12 1028.1 - 0.8 - - - - - - -
28/04:00am 10.8 N 9 11 1028.1 - 0.8 - - - - - - -
28/03:30am 10.7 N 9 11 1027.9 - 0.8 - - - - - - -
28/03:00am 10.7 N 9 10 1028.1 - 0.8 Recent precip. - - - - - -
28/02:30am 10.5 N 9 12 1028.0 - 0.8 - - - - - - -
28/02:00am 10.6 N 10 13 1028.2 - 0.4 - - - - - - -
28/01:30am 10.4 N 11 13 1028.1 - 0.4 - - - - - - -
28/01:00am 10.4 N 11 14 1028.2 - 0.0 - - - - - - -
28/12:30am 10.5 N 10 13 1028.3 - 0.0 - - - - - - -

Other Formats:

Comma delimited format used in spreadsheet applications
http://www.bom.gov.au/fwo/IDT60701/IDT60701.95967.axf

JavaScript Object Notation format (JSON) in row-major order
http://www.bom.gov.au/fwo/IDT60701/IDT60701.95967.json